Time;durP1;ratioP1;P1;durP2;ratioP2;P2;SDS_P1;SDS_P2;PMS_P1;PMS_P2;Temp;Humidity;BMP_temperature;BMP_pressure;BME280_temperature;BME280_humidity;BME280_pressure;Samples;Min_cycle;Max_cycle;Signal;HPM_P1;HPM_P2
2024/01/04 00:01:38;;;;;;;1.70;0.90;;;19.50;46.20;;;;;;4993367;28;20238;-68
2024/01/04 00:04:03;;;;;;;0.93;0.77;;;19.50;46.20;;;;;;4986573;28;20780;-66
2024/01/04 00:06:29;;;;;;;1.00;0.90;;;19.50;46.20;;;;;;4990842;28;20608;-66
2024/01/04 00:08:55;;;;;;;1.20;1.10;;;19.50;46.20;;;;;;4994547;28;20254;-66
2024/01/04 00:11:20;;;;;;;1.00;0.90;;;19.50;46.30;;;;;;4991500;28;20560;-69
2024/01/04 00:13:46;;;;;;;1.00;0.90;;;19.50;46.30;;;;;;4992757;28;20351;-66
2024/01/04 00:16:11;;;;;;;0.80;0.70;;;19.50;46.20;;;;;;4996548;28;20314;-67
2024/01/04 00:18:37;;;;;;;0.90;0.80;;;19.50;46.20;;;;;;4987150;28;20614;-67
2024/01/04 00:21:03;;;;;;;0.80;0.70;;;19.50;46.20;;;;;;4985595;28;20224;-67
2024/01/04 00:23:31;;;;;;;0.80;0.70;;;19.50;46.20;;;;;;4992809;28;20749;-67
2024/01/04 00:25:57;;;;;;;1.87;0.80;;;19.50;46.20;;;;;;4992850;28;20677;-67
2024/01/04 00:28:22;;;;;;;0.97;0.87;;;19.50;46.20;;;;;;4990259;28;20457;-68
2024/01/04 00:30:48;;;;;;;1.97;0.77;;;19.50;46.20;;;;;;4989538;28;20307;-67
2024/01/04 00:33:13;;;;;;;1.50;0.80;;;19.50;46.20;;;;;;4985273;28;20223;-73
2024/01/04 00:35:39;;;;;;;0.70;0.60;;;19.50;46.30;;;;;;4994126;28;20246;-73
2024/01/04 00:38:04;;;;;;;0.70;0.60;;;19.50;46.20;;;;;;4985792;28;20321;-73
2024/01/04 00:40:30;;;;;;;0.70;0.60;;;19.50;46.20;;;;;;4989046;28;20626;-72
2024/01/04 00:42:57;;;;;;;2.33;0.70;;;19.50;46.20;;;;;;4993227;28;20247;-67
2024/01/04 00:45:23;;;;;;;1.47;1.00;;;19.50;46.20;;;;;;4975780;28;20220;-67
2024/01/04 00:47:48;;;;;;;0.93;0.70;;;19.50;46.20;;;;;;4977227;28;20507;-68
2024/01/04 00:50:14;;;;;;;1.00;0.90;;;19.50;46.20;;;;;;4986790;28;20225;-66
2024/01/04 00:52:40;;;;;;;1.30;0.80;;;19.50;46.20;;;;;;4974765;28;20735;-70
2024/01/04 00:55:06;;;;;;;0.90;0.70;;;19.50;46.30;;;;;;4976709;28;20215;-66
2024/01/04 00:57:31;;;;;;;1.03;0.70;;;19.50;46.20;;;;;;4995800;28;20677;-67
2024/01/04 00:59:57;;;;;;;1.07;0.97;;;19.50;46.30;;;;;;4989041;28;20224;-67
2024/01/04 01:02:22;;;;;;;0.70;0.70;;;19.50;46.30;;;;;;4986500;28;20240;-69
2024/01/04 01:04:48;;;;;;;1.00;0.80;;;19.50;46.20;;;;;;4996826;28;20651;-67
2024/01/04 01:07:13;;;;;;;0.80;0.70;;;19.50;46.20;;;;;;4991395;28;20228;-66
2024/01/04 01:09:39;;;;;;;0.73;0.67;;;19.50;46.20;;;;;;4994326;28;20687;-67
2024/01/04 01:12:05;;;;;;;1.13;0.80;;;19.50;46.30;;;;;;4991430;28;20277;-68
2024/01/04 01:14:30;;;;;;;0.80;0.60;;;19.50;46.30;;;;;;4984413;28;20310;-68
2024/01/04 01:16:56;;;;;;;1.20;0.90;;;19.50;46.30;;;;;;4973282;28;20574;-69
2024/01/04 01:19:21;;;;;;;0.80;0.77;;;19.50;46.20;;;;;;4971840;28;20243;-69
2024/01/04 01:21:47;;;;;;;0.80;0.77;;;19.50;46.30;;;;;;4993242;28;20282;-69
2024/01/04 01:24:12;;;;;;;3.27;0.80;;;19.50;46.30;;;;;;4996141;28;20700;-68
2024/01/04 01:26:39;;;;;;;0.80;0.70;;;19.50;46.30;;;;;;4992686;28;20259;-68
2024/01/04 01:29:04;;;;;;;1.00;0.90;;;19.50;46.30;;;;;;4980840;28;20254;-67
2024/01/04 01:31:30;;;;;;;0.90;0.70;;;19.50;46.30;;;;;;4995229;28;21029;-68
2024/01/04 01:33:55;;;;;;;0.70;0.70;;;19.50;46.30;;;;;;4976335;28;20227;-68
2024/01/04 01:36:21;;;;;;;1.00;0.90;;;19.50;46.30;;;;;;4985796;28;20693;-68
2024/01/04 01:38:47;;;;;;;0.60;0.60;;;19.50;46.30;;;;;;4994014;28;20242;-67
2024/01/04 01:41:12;;;;;;;0.90;0.67;;;19.50;46.30;;;;;;4976047;28;20684;-67
2024/01/04 01:43:38;;;;;;;0.90;0.80;;;19.50;46.30;;;;;;4995879;28;20250;-71
2024/01/04 01:46:04;;;;;;;1.37;0.70;;;19.50;46.30;;;;;;4980723;28;20282;-70
2024/01/04 01:48:29;;;;;;;0.80;0.80;;;19.50;46.30;;;;;;4993735;28;20828;-70
2024/01/04 01:50:55;;;;;;;0.70;0.63;;;19.50;46.30;;;;;;4996414;28;20227;-70
2024/01/04 01:53:21;;;;;;;1.10;1.00;;;19.50;46.30;;;;;;4991611;28;20753;-68
2024/01/04 01:55:47;;;;;;;0.77;0.77;;;19.50;46.30;;;;;;4992798;28;20240;-70
2024/01/04 01:58:13;;;;;;;0.70;0.60;;;19.50;46.30;;;;;;4992349;28;21138;-70
2024/01/04 02:00:39;;;;;;;0.90;0.70;;;19.50;46.20;;;;;;4994340;28;20297;-71
2024/01/04 02:03:05;;;;;;;0.70;0.60;;;19.50;46.30;;;;;;4991400;28;20475;-69
2024/01/04 02:05:31;;;;;;;0.70;0.60;;;19.50;46.30;;;;;;4976755;28;20449;-70
2024/01/04 02:07:57;;;;;;;1.10;0.80;;;19.50;46.30;;;;;;4986008;28;20301;-69
2024/01/04 02:10:23;;;;;;;0.60;0.60;;;19.50;46.30;;;;;;4991585;28;20216;-70
2024/01/04 02:12:48;;;;;;;0.90;0.80;;;19.50;46.30;;;;;;4997500;28;20468;-69
2024/01/04 02:15:14;;;;;;;1.10;1.00;;;19.50;46.30;;;;;;4988631;28;20228;-70
2024/01/04 02:17:40;;;;;;;0.70;0.67;;;19.50;46.30;;;;;;4996281;28;20236;-68
2024/01/04 02:20:07;;;;;;;0.80;0.67;;;19.50;46.30;;;;;;4976895;28;20599;-70
2024/01/04 02:22:35;;;;;;;0.80;0.63;;;19.50;46.30;;;;;;4994612;28;20975;-72
2024/01/04 02:25:01;;;;;;;0.90;0.77;;;19.50;46.30;;;;;;4982668;28;20510;-71
2024/01/04 02:27:27;;;;;;;0.73;0.63;;;19.50;46.30;;;;;;4996062;28;20461;-71
2024/01/04 02:29:52;;;;;;;1.00;0.80;;;19.50;46.30;;;;;;4977555;28;20599;-72
2024/01/04 02:32:18;;;;;;;0.60;0.57;;;19.50;46.30;;;;;;4976587;28;20782;-73
2024/01/04 02:34:44;;;;;;;0.70;0.60;;;19.50;46.30;;;;;;4981019;28;20243;-73
2024/01/04 02:37:09;;;;;;;1.00;0.90;;;19.50;46.30;;;;;;4980978;28;20250;-72
2024/01/04 02:39:35;;;;;;;1.10;0.80;;;19.50;46.20;;;;;;4995382;28;20230;-70
2024/01/04 02:42:01;;;;;;;1.00;0.70;;;19.50;46.30;;;;;;4983381;28;20234;-72
2024/01/04 02:44:26;;;;;;;1.20;0.80;;;19.50;46.30;;;;;;4997452;28;20317;-73
2024/01/04 02:46:52;;;;;;;1.30;0.60;;;19.50;46.20;;;;;;4992930;28;20621;-71
2024/01/04 02:49:19;;;;;;;0.70;0.63;;;19.50;46.30;;;;;;4985469;28;20212;-72
2024/01/04 02:51:44;;;;;;;0.90;0.80;;;19.50;46.20;;;;;;4985613;28;20724;-68
2024/01/04 02:54:10;;;;;;;0.70;0.60;;;19.50;46.30;;;;;;4976857;28;20490;-69
2024/01/04 02:56:35;;;;;;;1.10;0.60;;;19.50;46.20;;;;;;4995852;28;20250;-68
2024/01/04 02:59:01;;;;;;;0.70;0.70;;;19.50;47.00;;;;;;4980849;28;20215;-67
2024/01/04 03:01:26;;;;;;;0.70;0.70;;;19.50;46.20;;;;;;4979151;28;21273;-67
2024/01/04 03:03:53;;;;;;;3.17;0.70;;;19.50;46.30;;;;;;4994637;28;20221;-68
2024/01/04 03:06:25;;;;;;;0.90;0.80;;;19.50;46.20;;;;;;4994466;28;20231;-67
2024/01/04 03:08:51;;;;;;;0.80;0.73;;;19.50;46.20;;;;;;5010674;28;20932;-67
2024/01/04 03:11:17;;;;;;;0.60;0.60;;;19.50;46.20;;;;;;4966614;28;20437;-67
2024/01/04 03:13:43;;;;;;;0.90;0.60;;;19.50;46.20;;;;;;4993665;28;20546;-67
2024/01/04 03:16:09;;;;;;;0.80;0.63;;;19.50;46.20;;;;;;4977049;28;20307;-67
2024/01/04 03:18:34;;;;;;;0.70;0.70;;;19.50;46.20;;;;;;4976451;28;20235;-67
2024/01/04 03:21:01;;;;;;;0.83;0.83;;;19.40;46.20;;;;;;4993348;28;20233;-68
2024/01/04 03:23:28;;;;;;;0.70;0.60;;;19.50;46.20;;;;;;4993229;28;20277;-68
2024/01/04 03:25:54;;;;;;;0.60;0.60;;;19.50;46.20;;;;;;4991355;28;20925;-67
2024/01/04 03:28:20;;;;;;;0.70;0.67;;;19.50;46.20;;;;;;4993876;28;20222;-68
2024/01/04 03:30:46;;;;;;;0.73;0.60;;;19.50;46.30;;;;;;4979792;28;20428;-67
2024/01/04 03:33:11;;;;;;;1.17;0.63;;;19.50;46.20;;;;;;4990632;28;20219;-67
2024/01/04 03:35:37;;;;;;;2.03;1.53;;;19.50;46.20;;;;;;4993854;28;20295;-67
2024/01/04 03:38:03;;;;;;;0.80;0.70;;;19.50;46.20;;;;;;4989213;28;20242;-69
2024/01/04 03:40:28;;;;;;;0.70;0.60;;;19.50;46.20;;;;;;4990019;28;20246;-67
2024/01/04 03:42:54;;;;;;;0.70;0.70;;;19.40;46.10;;;;;;4994200;28;20230;-67
2024/01/04 03:45:19;;;;;;;1.00;0.60;;;19.40;46.10;;;;;;4995050;28;20301;-67
2024/01/04 03:47:45;;;;;;;0.90;0.60;;;19.50;46.20;;;;;;4981741;28;20680;-67
2024/01/04 03:50:11;;;;;;;0.80;0.60;;;19.50;47.00;;;;;;4989753;28;20223;-67
2024/01/04 03:52:37;;;;;;;0.70;0.70;;;19.50;46.30;;;;;;4981594;28;20235;-68
2024/01/04 03:55:03;;;;;;;1.13;0.80;;;19.50;46.20;;;;;;4971082;28;20759;-67
2024/01/04 03:57:29;;;;;;;0.70;0.70;;;19.40;46.10;;;;;;4994516;28;20232;-68
2024/01/04 03:59:54;;;;;;;0.83;0.73;;;19.50;46.20;;;;;;4985849;28;20979;-67
2024/01/04 04:02:20;;;;;;;0.80;0.80;;;19.50;46.20;;;;;;4989922;28;20637;-69
2024/01/04 04:04:46;;;;;;;0.80;0.80;;;19.50;46.20;;;;;;4995716;28;20266;-70
2024/01/04 04:07:11;;;;;;;0.60;0.50;;;19.50;46.20;;;;;;4978199;28;20231;-70
2024/01/04 04:09:37;;;;;;;0.80;0.60;;;19.50;46.20;;;;;;4980601;28;20239;-69
2024/01/04 04:12:03;;;;;;;0.80;0.70;;;19.50;46.20;;;;;;4975774;28;20228;-72
2024/01/04 04:14:29;;;;;;;0.63;0.60;;;19.50;46.20;;;;;;4975260;28;20223;-72
2024/01/04 04:16:55;;;;;;;0.60;0.50;;;19.50;46.20;;;;;;4989603;28;20289;-71
2024/01/04 04:19:20;;;;;;;0.77;0.60;;;19.40;46.20;;;;;;4982431;28;20440;-69
2024/01/04 04:21:46;;;;;;;0.70;0.60;;;19.50;46.20;;;;;;4992188;28;20713;-72
2024/01/04 04:24:12;;;;;;;0.80;0.60;;;19.50;46.20;;;;;;4983892;28;20209;-71
2024/01/04 04:26:37;;;;;;;0.80;0.70;;;19.50;46.20;;;;;;4993994;28;20766;-68
2024/01/04 04:29:03;;;;;;;0.80;0.67;;;19.40;46.10;;;;;;4990400;28;20222;-71
2024/01/04 04:31:29;;;;;;;0.70;0.70;;;19.50;46.20;;;;;;4981621;28;20493;-71
2024/01/04 04:33:54;;;;;;;0.80;0.80;;;19.40;46.10;;;;;;4995613;28;20952;-72
2024/01/04 04:36:20;;;;;;;0.70;0.60;;;19.40;46.10;;;;;;4977116;28;20719;-72
2024/01/04 04:38:46;;;;;;;0.97;0.60;;;19.50;46.20;;;;;;4995262;28;20675;-71
2024/01/04 04:41:11;;;;;;;0.90;0.60;;;19.50;46.20;;;;;;4996938;28;20224;-72
2024/01/04 04:43:37;;;;;;;0.80;0.70;;;19.40;46.10;;;;;;4985930;28;20230;-72
2024/01/04 04:46:09;;;;;;;0.73;0.60;;;19.50;46.10;;;;;;4993650;28;20729;-72
2024/01/04 04:48:36;;;;;;;0.90;0.60;;;19.50;46.20;;;;;;4982226;28;20279;-71
2024/01/04 04:51:02;;;;;;;1.20;0.80;;;19.50;46.10;;;;;;4996128;28;20799;-72
2024/01/04 04:53:27;;;;;;;0.70;0.60;;;19.50;46.10;;;;;;4993606;28;20431;-71
2024/01/04 04:55:53;;;;;;;1.70;0.90;;;19.50;46.10;;;;;;4994952;28;20315;-72
2024/01/04 04:58:18;;;;;;;0.70;0.60;;;19.50;46.10;;;;;;4997207;28;20282;-72
2024/01/04 05:00:44;;;;;;;0.80;0.60;;;19.50;46.00;;;;;;4996684;28;20231;-72
2024/01/04 05:03:09;;;;;;;0.70;0.60;;;19.50;46.00;;;;;;4997993;28;20750;-71
2024/01/04 05:05:35;;;;;;;0.60;0.60;;;19.50;46.00;;;;;;4996640;28;20578;-72
2024/01/04 05:08:02;;;;;;;0.80;0.63;;;19.50;46.00;;;;;;4997474;28;20626;-72
2024/01/04 05:10:28;;;;;;;1.10;0.70;;;19.50;46.00;;;;;;4977756;28;20239;-72
2024/01/04 05:12:54;;;;;;;0.80;0.63;;;19.50;45.90;;;;;;4988353;28;20453;-68
2024/01/04 05:15:19;;;;;;;0.80;0.63;;;19.50;45.90;;;;;;4996811;28;20227;-68
2024/01/04 05:17:45;;;;;;;0.67;0.60;;;19.50;46.00;;;;;;4994893;28;20237;-68
2024/01/04 05:20:12;;;;;;;0.83;0.70;;;19.50;45.90;;;;;;4996489;28;20239;-67
2024/01/04 05:22:39;;;;;;;0.87;0.87;;;19.50;45.90;;;;;;4995636;28;20228;-67
2024/01/04 05:25:05;;;;;;;2.10;0.60;;;19.50;45.90;;;;;;4997926;28;20547;-68
2024/01/04 05:27:30;;;;;;;0.73;0.70;;;19.60;46.00;;;;;;4989195;28;20939;-68
2024/01/04 05:29:56;;;;;;;1.13;0.60;;;19.60;46.10;;;;;;4994817;28;20518;-68
2024/01/04 05:32:22;;;;;;;1.63;0.77;;;19.50;45.80;;;;;;4991073;28;20718;-67
2024/01/04 05:34:47;;;;;;;0.60;0.50;;;19.60;46.00;;;;;;4990582;28;20239;-68
2024/01/04 05:37:13;;;;;;;0.70;0.63;;;19.60;46.00;;;;;;4989180;28;20236;-69
2024/01/04 05:39:39;;;;;;;0.80;0.50;;;19.60;45.90;;;;;;4996610;28;20805;-68
2024/01/04 05:42:05;;;;;;;0.63;0.50;;;19.60;45.90;;;;;;4979417;28;20240;-68
2024/01/04 05:44:30;;;;;;;0.70;0.70;;;19.60;45.90;;;;;;4992606;28;20427;-69
2024/01/04 05:46:56;;;;;;;0.70;0.60;;;19.60;45.90;;;;;;4997201;28;20851;-68
2024/01/04 05:49:21;;;;;;;0.93;0.70;;;19.60;45.90;;;;;;4994509;28;20223;-68
2024/01/04 05:51:47;;;;;;;0.73;0.67;;;19.60;45.90;;;;;;4990389;28;20224;-68
2024/01/04 05:54:12;;;;;;;0.70;0.67;;;19.60;45.90;;;;;;4988555;28;20255;-68
2024/01/04 05:56:38;;;;;;;0.87;0.67;;;19.60;45.90;;;;;;4979648;28;20409;-69
2024/01/04 05:59:04;;;;;;;0.80;0.60;;;19.60;45.80;;;;;;4983720;28;20213;-68
2024/01/04 06:01:29;;;;;;;0.60;0.60;;;19.60;45.90;;;;;;4988827;28;20545;-67
2024/01/04 06:03:55;;;;;;;0.60;0.50;;;19.60;45.90;;;;;;4992623;28;20228;-69
2024/01/04 06:06:20;;;;;;;0.80;0.60;;;19.60;45.80;;;;;;4996060;28;20226;-67
2024/01/04 06:08:46;;;;;;;1.00;0.70;;;19.60;45.90;;;;;;4993417;28;20213;-66
2024/01/04 06:11:12;;;;;;;1.00;0.80;;;19.60;45.90;;;;;;4982764;28;20274;-67
2024/01/04 06:13:37;;;;;;;0.60;0.50;;;19.60;45.80;;;;;;4991763;28;20309;-68
2024/01/04 06:16:07;;;;;;;1.17;0.73;;;19.60;45.80;;;;;;4993387;28;20231;-67
2024/01/04 06:18:34;;;;;;;0.80;0.70;;;19.60;45.80;;;;;;4994236;28;20702;-67
2024/01/04 06:20:59;;;;;;;0.90;0.70;;;19.60;45.80;;;;;;4982661;28;20479;-67
2024/01/04 06:23:26;;;;;;;0.60;0.60;;;19.60;45.80;;;;;;4990112;28;20479;-73
2024/01/04 06:25:51;;;;;;;1.37;0.60;;;19.60;45.70;;;;;;4991600;28;20247;-71
2024/01/04 06:28:17;;;;;;;0.80;0.60;;;19.60;45.80;;;;;;4993071;28;20547;-72
2024/01/04 06:30:42;;;;;;;1.10;0.70;;;19.60;45.70;;;;;;4989016;28;20269;-73
2024/01/04 06:33:08;;;;;;;0.90;0.60;;;19.70;45.80;;;;;;4997470;28;20775;-68
2024/01/04 06:35:34;;;;;;;0.80;0.70;;;19.60;45.70;;;;;;4991684;28;20244;-68
2024/01/04 06:37:59;;;;;;;1.00;0.80;;;19.60;45.70;;;;;;4994270;28;21031;-70
2024/01/04 06:40:25;;;;;;;1.33;0.70;;;19.70;45.80;;;;;;4988779;28;20992;-67
2024/01/04 06:42:55;;;;;;;0.80;0.70;;;19.70;45.80;;;;;;4982079;28;20326;-69
2024/01/04 06:45:21;;;;;;;0.70;0.70;;;19.60;45.70;;;;;;4990195;28;20232;-69
2024/01/04 06:47:47;;;;;;;0.77;0.67;;;19.70;45.80;;;;;;4996361;28;20439;-67
2024/01/04 06:50:12;;;;;;;0.60;0.60;;;19.70;45.80;;;;;;4992667;28;20457;-67
2024/01/04 06:52:38;;;;;;;0.70;0.70;;;19.70;45.80;;;;;;4986394;28;20724;-68
2024/01/04 06:55:04;;;;;;;0.90;0.80;;;19.70;45.80;;;;;;4987962;28;20230;-69
2024/01/04 06:57:29;;;;;;;0.70;0.60;;;19.70;45.80;;;;;;4988826;28;20259;-67
2024/01/04 06:59:55;;;;;;;1.33;0.70;;;19.70;46.10;;;;;;4972124;28;20228;-68
2024/01/04 07:02:20;;;;;;;0.70;0.70;;;19.70;45.80;;;;;;4981058;28;20619;-71
2024/01/04 07:04:46;;;;;;;0.70;0.60;;;19.70;45.80;;;;;;4989121;28;20242;-69
2024/01/04 07:07:11;;;;;;;0.90;0.70;;;19.70;45.80;;;;;;4996630;28;20656;-73
2024/01/04 07:09:37;;;;;;;0.80;0.60;;;19.70;45.80;;;;;;4989958;28;20302;-72
2024/01/04 07:12:03;;;;;;;0.70;0.60;;;19.60;45.70;;;;;;4997159;28;20716;-73
2024/01/04 07:14:29;;;;;;;0.83;0.70;;;19.70;45.80;;;;;;4989588;28;20222;-72
2024/01/04 07:16:55;;;;;;;0.80;0.70;;;19.70;45.80;;;;;;4994894;28;20473;-72
2024/01/04 07:19:22;;;;;;;1.63;0.60;;;19.70;45.80;;;;;;4996370;28;20676;-72
2024/01/04 07:21:48;;;;;;;0.80;0.70;;;19.70;45.80;;;;;;4992784;28;20726;-71
2024/01/04 07:24:14;;;;;;;0.80;0.70;;;19.60;45.70;;;;;;4990448;28;20442;-72
2024/01/04 07:26:39;;;;;;;0.70;0.60;;;19.60;45.70;;;;;;4995229;28;21117;-72
2024/01/04 07:29:05;;;;;;;0.90;0.70;;;19.70;45.80;;;;;;4995795;28;20267;-72
2024/01/04 07:31:31;;;;;;;1.53;0.77;;;19.70;45.80;;;;;;4994203;28;20228;-71
2024/01/04 07:33:57;;;;;;;0.80;0.70;;;19.70;45.80;;;;;;4993674;28;20315;-72
2024/01/04 07:36:23;;;;;;;0.73;0.73;;;19.70;45.80;;;;;;4998123;28;20232;-72
2024/01/04 07:38:49;;;;;;;0.70;0.60;;;19.60;45.70;;;;;;4992532;28;20841;-71
2024/01/04 07:41:15;;;;;;;0.70;0.60;;;19.70;45.80;;;;;;4989539;28;20234;-72
2024/01/04 07:43:41;;;;;;;1.10;0.70;;;19.60;45.70;;;;;;4996317;28;20455;-69
2024/01/04 07:46:07;;;;;;;0.80;0.80;;;19.70;45.80;;;;;;4994701;28;20469;-66
2024/01/04 07:48:33;;;;;;;0.70;0.60;;;19.60;45.70;;;;;;4991912;28;20235;-68
2024/01/04 07:50:59;;;;;;;0.90;0.80;;;19.60;45.80;;;;;;4994581;28;20217;-68
2024/01/04 07:53:24;;;;;;;1.67;1.10;;;19.70;45.70;;;;;;4996823;28;20440;-67
2024/01/04 07:55:50;;;;;;;0.80;0.60;;;19.60;45.70;;;;;;4995330;28;20572;-67
2024/01/04 07:58:16;;;;;;;0.90;0.70;;;19.60;45.70;;;;;;4993048;28;20239;-67
2024/01/04 08:00:41;;;;;;;0.70;0.70;;;19.60;45.70;;;;;;4990215;28;20223;-69
2024/01/04 08:03:07;;;;;;;0.80;0.70;;;19.60;45.70;;;;;;4981255;28;20223;-67
2024/01/04 08:05:32;;;;;;;0.70;0.60;;;19.60;45.70;;;;;;4992675;28;20877;-66
2024/01/04 08:07:58;;;;;;;0.90;0.80;;;19.60;45.80;;;;;;4991043;28;20234;-67
2024/01/04 08:10:23;;;;;;;0.93;0.90;;;19.60;45.70;;;;;;4988301;28;20728;-69
2024/01/04 08:12:49;;;;;;;0.60;0.60;;;19.60;45.70;;;;;;4996115;28;20265;-72
2024/01/04 08:15:15;;;;;;;0.60;0.60;;;19.60;45.70;;;;;;4987124;28;20334;-75
2024/01/04 08:17:40;;;;;;;0.70;0.60;;;19.60;45.70;;;;;;4995467;28;20549;-72
2024/01/04 08:20:06;;;;;;;0.70;0.60;;;19.60;45.70;;;;;;4996327;28;20224;-71
2024/01/04 08:22:32;;;;;;;0.70;0.60;;;19.60;45.80;;;;;;4986797;28;20983;-74
2024/01/04 08:24:57;;;;;;;0.80;0.70;;;19.60;45.80;;;;;;4995900;28;20223;-71
2024/01/04 08:27:23;;;;;;;1.03;0.70;;;19.60;45.70;;;;;;4991478;28;20215;-74
2024/01/04 08:29:49;;;;;;;0.70;0.60;;;19.60;45.80;;;;;;4990500;28;20227;-74
2024/01/04 08:32:16;;;;;;;0.70;0.70;;;19.60;45.80;;;;;;4986431;28;20635;-73
2024/01/04 08:34:42;;;;;;;0.70;0.70;;;19.60;45.80;;;;;;4990748;28;20465;-73
2024/01/04 08:37:08;;;;;;;0.77;0.73;;;19.60;45.80;;;;;;4995051;28;20459;-73
2024/01/04 08:39:33;;;;;;;0.67;0.60;;;19.60;45.80;;;;;;4987039;28;21220;-74
2024/01/04 08:41:59;;;;;;;0.80;0.70;;;19.60;45.80;;;;;;4986074;28;20220;-69
2024/01/04 08:44:25;;;;;;;1.23;0.70;;;19.60;45.80;;;;;;4994544;28;20718;-73
2024/01/04 08:46:52;;;;;;;0.70;0.60;;;19.60;45.80;;;;;;4994007;28;20640;-73
2024/01/04 08:49:18;;;;;;;0.70;0.60;;;19.60;45.80;;;;;;4989981;28;20519;-73
2024/01/04 08:51:44;;;;;;;0.70;0.70;;;19.60;45.80;;;;;;4991427;28;20552;-66
2024/01/04 08:54:10;;;;;;;0.70;0.60;;;19.60;45.80;;;;;;4989198;28;20309;-69
2024/01/04 08:56:36;;;;;;;1.00;0.90;;;19.60;45.80;;;;;;4993754;28;21414;-68
2024/01/04 08:59:02;;;;;;;0.63;0.60;;;19.60;45.90;;;;;;4973475;28;20227;-68
2024/01/04 09:01:31;;;;;;;0.70;0.70;;;19.60;45.90;;;;;;4992938;28;20273;-67
2024/01/04 09:03:57;;;;;;;0.70;0.60;;;19.60;45.90;;;;;;4996197;28;20424;-67
2024/01/04 09:06:22;;;;;;;0.70;0.60;;;19.60;45.90;;;;;;4982325;28;20465;-70
2024/01/04 09:08:48;;;;;;;0.70;0.60;;;19.60;45.90;;;;;;4995920;28;20448;-69
2024/01/04 09:11:18;;;;;;;0.70;0.60;;;19.60;45.90;;;;;;4988107;28;20212;-68
2024/01/04 09:13:45;;;;;;;0.70;0.60;;;19.60;45.90;;;;;;4988590;28;20810;-67
2024/01/04 09:16:11;;;;;;;0.90;0.70;;;19.60;45.90;;;;;;4990834;28;20797;-67
2024/01/04 09:18:36;;;;;;;0.80;0.77;;;19.60;45.90;;;;;;4986602;28;20439;-68
2024/01/04 09:21:02;;;;;;;0.90;0.70;;;19.60;45.90;;;;;;4997727;28;20231;-67
2024/01/04 09:23:28;;;;;;;1.07;0.70;;;19.60;45.90;;;;;;4989495;28;20228;-68
2024/01/04 09:25:53;;;;;;;0.70;0.70;;;19.60;45.90;;;;;;4997804;28;20714;-68
2024/01/04 09:28:19;;;;;;;0.90;0.73;;;19.60;45.90;;;;;;4999973;28;20258;-67
2024/01/04 09:30:44;;;;;;;0.70;0.70;;;19.50;45.80;;;;;;4987866;28;20227;-68
2024/01/04 09:33:11;;;;;;;0.80;0.80;;;19.60;45.90;;;;;;4988700;28;20220;-72
2024/01/04 09:35:37;;;;;;;1.80;0.90;;;19.60;46.00;;;;;;4989931;28;20639;-69
2024/01/04 09:38:03;;;;;;;0.80;0.80;;;19.50;45.90;;;;;;4996903;28;20448;-68
2024/01/04 09:40:28;;;;;;;1.00;0.77;;;19.60;45.90;;;;;;4995981;28;20220;-68
2024/01/04 09:42:55;;;;;;;0.90;0.80;;;19.60;45.90;;;;;;4996283;28;20626;-68
2024/01/04 09:45:22;;;;;;;0.70;0.70;;;19.60;45.90;;;;;;4989967;28;21002;-69
2024/01/04 09:47:53;;;;;;;0.90;0.70;;;19.50;45.90;;;;;;4994784;28;20435;-70
2024/01/04 09:50:19;;;;;;;0.70;0.70;;;19.60;46.00;;;;;;4997779;28;20527;-70
2024/01/04 09:52:46;;;;;;;0.90;0.70;;;19.50;45.90;;;;;;4995582;28;20866;-67
2024/01/04 09:55:16;;;;;;;0.80;0.67;;;19.60;46.00;;;;;;4988452;28;20783;-68
2024/01/04 09:57:42;;;;;;;0.87;0.70;;;19.50;45.90;;;;;;4995810;28;20972;-67
2024/01/04 10:00:09;;;;;;;1.07;0.80;;;19.60;45.90;;;;;;4997513;28;20424;-69
2024/01/04 10:02:40;;;;;;;0.90;0.80;;;19.50;45.90;;;;;;4996379;28;20220;-68
2024/01/04 10:05:06;;;;;;;0.90;0.90;;;19.50;45.90;;;;;;4993009;28;20507;-69
2024/01/04 10:07:37;;;;;;;1.20;0.73;;;19.50;45.90;;;;;;4987169;28;20737;-67
2024/01/04 10:10:08;;;;;;;1.37;0.80;;;19.50;45.90;;;;;;4996845;28;20857;-67
2024/01/04 10:12:36;;;;;;;0.60;0.60;;;19.50;45.90;;;;;;4996907;28;20423;-69
2024/01/04 10:15:03;;;;;;;2.10;0.80;;;19.50;45.90;;;;;;4997393;28;20785;-68
2024/01/04 10:17:28;;;;;;;0.67;0.60;;;19.50;45.90;;;;;;4978759;28;20468;-68
2024/01/04 10:19:55;;;;;;;0.60;0.60;;;19.50;45.90;;;;;;4996194;28;20433;-69
2024/01/04 10:22:22;;;;;;;0.70;0.60;;;19.50;45.80;;;;;;4987682;28;20223;-69
2024/01/04 10:24:47;;;;;;;0.97;0.70;;;19.50;45.90;;;;;;4989386;28;20845;-70
2024/01/04 10:27:15;;;;;;;0.60;0.60;;;19.50;45.90;;;;;;5000171;28;20431;-67
2024/01/04 10:29:43;;;;;;;3.30;0.90;;;19.50;45.90;;;;;;4996673;28;20223;-72
2024/01/04 10:32:13;;;;;;;0.80;0.80;;;19.50;45.90;;;;;;4989760;28;20459;-69
2024/01/04 10:34:39;;;;;;;0.77;0.67;;;19.50;45.80;;;;;;4984912;28;20480;-69
2024/01/04 10:37:17;;;;;;;16.30;1.70;;;19.50;45.90;;;;;;4996698;28;20977;-67
2024/01/04 10:39:55;;;;;;;5.30;0.70;;;19.50;45.80;;;;;;4996769;28;20665;-68
2024/01/04 10:42:21;;;;;;;4.60;0.90;;;19.50;45.80;;;;;;4991606;28;20423;-68
2024/01/04 10:44:51;;;;;;;0.97;0.90;;;19.50;45.90;;;;;;4997804;28;21014;-68
2024/01/04 10:47:17;;;;;;;1.30;0.80;;;19.50;45.80;;;;;;4990030;28;20227;-68
2024/01/04 10:49:48;;;;;;;1.00;0.90;;;19.50;45.90;;;;;;4992450;28;20492;-70
2024/01/04 10:52:16;;;;;;;2.90;0.80;;;19.50;45.90;;;;;;4993246;28;20440;-68
2024/01/04 10:54:42;;;;;;;2.57;0.90;;;19.50;45.90;;;;;;4977216;28;20449;-70
2024/01/04 10:57:09;;;;;;;5.63;1.00;;;19.60;46.00;;;;;;4978206;28;20437;-68
2024/01/04 10:59:35;;;;;;;3.00;0.97;;;19.60;45.90;;;;;;4976186;28;20461;-68
2024/01/04 11:02:01;;;;;;;2.10;0.80;;;19.60;46.00;;;;;;4983784;28;20440;-70
2024/01/04 11:04:28;;;;;;;2.07;0.87;;;19.50;45.90;;;;;;4999345;28;20476;-70
2024/01/04 11:06:55;;;;;;;1.40;1.30;;;19.60;45.90;;;;;;4991028;28;20736;-69
2024/01/04 11:09:21;;;;;;;0.80;0.70;;;19.60;45.90;;;;;;4995215;28;20459;-69
2024/01/04 11:11:52;;;;;;;0.93;0.80;;;19.50;45.90;;;;;;4986287;28;21240;-69
2024/01/04 11:14:21;;;;;;;2.80;0.80;;;19.60;46.00;;;;;;4991735;28;20440;-71
2024/01/04 11:17:45;;;;;;;1.20;0.80;;;19.60;46.00;;;;;;4994052;28;20467;-70
2024/01/04 11:20:22;;;;;;;2.50;0.70;;;19.60;45.90;;;;;;4932696;28;20422;-70
2024/01/04 11:23:20;;;;;;;1.30;0.83;;;19.60;46.00;;;;;;4926765;28;20439;-68
2024/01/04 11:25:58;;;;;;;1.30;0.83;;;19.60;46.00;;;;;;4967131;28;20793;-70
2024/01/04 11:28:24;;;;;;;2.40;0.93;;;19.60;46.00;;;;;;4993563;28;20423;-70
2024/01/04 11:30:53;;;;;;;1.33;0.80;;;19.60;46.00;;;;;;4998265;28;20516;-68
2024/01/04 11:33:21;;;;;;;0.90;0.80;;;19.60;46.00;;;;;;4994912;28;20551;-68
2024/01/04 11:35:50;;;;;;;1.77;0.90;;;19.60;46.00;;;;;;4994414;28;20477;-69
2024/01/04 11:38:26;;;;;;;1.37;0.80;;;19.60;46.00;;;;;;4994605;28;20547;-68
2024/01/04 11:40:52;;;;;;;1.00;0.80;;;19.60;46.00;;;;;;4993934;28;20461;-68
2024/01/04 11:43:17;;;;;;;0.97;0.90;;;19.60;46.00;;;;;;4987010;28;20499;-73
2024/01/04 11:45:44;;;;;;;1.67;1.20;;;19.60;46.00;;;;;;4990992;28;20220;-73
2024/01/04 11:48:10;;;;;;;1.87;0.93;;;19.60;46.00;;;;;;4995459;28;20228;-71
2024/01/04 11:50:46;;;;;;;1.97;0.90;;;19.60;46.10;;;;;;4997212;28;21579;-73
2024/01/04 11:53:12;;;;;;;1.20;0.90;;;19.60;46.00;;;;;;4989915;28;20490;-72
2024/01/04 11:55:38;;;;;;;1.00;0.90;;;19.60;46.00;;;;;;4995979;28;20435;-73
2024/01/04 11:58:12;;;;;;;1.30;1.20;;;19.60;46.00;;;;;;4996575;28;20511;-73
2024/01/04 12:00:41;;;;;;;0.70;0.70;;;19.60;46.00;;;;;;4996859;28;20230;-72
2024/01/04 12:03:17;;;;;;;0.80;0.80;;;19.60;46.00;;;;;;4996995;28;20420;-74
2024/01/04 12:05:46;;;;;;;1.10;0.87;;;19.60;46.00;;;;;;4995692;28;20496;-73
2024/01/04 12:08:24;;;;;;;1.10;0.97;;;19.60;46.10;;;;;;4993620;28;20437;-72
2024/01/04 12:10:53;;;;;;;1.90;1.17;;;19.60;46.10;;;;;;4996179;28;20420;-72
2024/01/04 12:13:19;;;;;;;2.40;0.80;;;19.60;46.10;;;;;;4992508;28;20442;-68
2024/01/04 12:15:45;;;;;;;1.00;0.80;;;19.60;46.10;;;;;;4993915;28;20530;-68
2024/01/04 12:18:10;;;;;;;0.93;0.80;;;19.60;46.70;;;;;;4984119;28;22259;-68
2024/01/04 12:20:36;;;;;;;1.10;1.00;;;19.60;46.20;;;;;;4992686;28;20215;-67
2024/01/04 12:23:04;;;;;;;1.30;0.93;;;19.60;46.20;;;;;;4996114;28;20559;-68
2024/01/04 12:25:30;;;;;;;0.80;0.80;;;19.60;46.10;;;;;;4994767;28;20229;-67
2024/01/04 12:27:55;;;;;;;1.73;1.50;;;19.60;46.20;;;;;;4966341;28;20806;-69
2024/01/04 12:30:22;;;;;;;1.10;0.90;;;19.60;46.20;;;;;;4990555;28;20289;-68
2024/01/04 12:32:47;;;;;;;1.00;0.90;;;19.60;46.20;;;;;;4995413;28;20226;-67
2024/01/04 12:35:17;;;;;;;1.00;0.80;;;19.60;46.20;;;;;;4994095;28;20444;-68
2024/01/04 12:37:42;;;;;;;1.10;1.00;;;19.60;46.20;;;;;;4993737;28;20715;-69
2024/01/04 12:40:11;;;;;;;1.00;0.90;;;19.60;46.20;;;;;;4996648;28;20427;-70
2024/01/04 12:42:37;;;;;;;1.03;0.93;;;19.60;46.20;;;;;;4985343;28;20215;-67
2024/01/04 12:45:07;;;;;;;2.83;0.90;;;19.60;46.20;;;;;;4994518;28;20505;-69